Time;durP1;ratioP1;P1;durP2;ratioP2;P2;SDS_P1;SDS_P2;PMS_P1;PMS_P2;Temp;Humidity;BMP_temperature;BMP_pressure;BME280_temperature;BME280_humidity;BME280_pressure;Samples;Min_cycle;Max_cycle;Signal;HPM_P1;HPM_P2
2023/07/17 00:00:41;;;;;;;11.73;3.85;;;;;;;16.54;99.73;101383.84;4993604;28;20084;-77
2023/07/17 00:03:06;;;;;;;18.73;4.70;;;;;;;16.50;100.00;101377.88;5001112;28;20042;-76
2023/07/17 00:05:32;;;;;;;16.00;4.20;;;;;;;16.49;100.00;101384.28;4995437;28;20026;-76
2023/07/17 00:07:57;;;;;;;11.82;4.22;;;;;;;16.43;100.00;101382.97;5001096;28;20040;-76
2023/07/17 00:10:22;;;;;;;12.52;3.72;;;;;;;16.40;100.00;101382.41;5001949;28;20110;-76
2023/07/17 00:12:48;;;;;;;15.00;4.22;;;;;;;16.41;100.00;101374.13;5002723;28;20125;-76
2023/07/17 00:15:13;;;;;;;13.18;3.70;;;;;;;16.40;100.00;101385.97;5002521;28;20029;-76
2023/07/17 00:17:38;;;;;;;14.13;4.00;;;;;;;16.36;99.67;101379.09;4999914;28;20030;-77
2023/07/17 00:20:09;;;;;;;11.65;3.70;;;;;;;16.38;100.00;101384.38;5001057;28;20496;-76
2023/07/17 00:22:35;;;;;;;14.13;4.78;;;;;;;16.35;100.00;101382.78;4999014;28;20030;-76
2023/07/17 00:25:00;;;;;;;16.30;4.57;;;;;;;16.36;99.44;101384.50;4994137;28;20042;-76
2023/07/17 00:27:26;;;;;;;14.10;4.32;;;;;;;16.34;99.35;101378.38;4997768;28;20034;-76
2023/07/17 00:29:52;;;;;;;14.73;4.57;;;;;;;16.31;99.11;101380.50;5000657;28;20024;-76
2023/07/17 00:32:17;;;;;;;13.00;4.47;;;;;;;16.32;98.93;101382.22;4997662;28;20505;-76
2023/07/17 00:34:42;;;;;;;14.88;4.13;;;;;;;16.23;97.72;101387.44;4995200;28;20161;-76
2023/07/17 00:37:08;;;;;;;17.58;5.38;;;;;;;16.21;98.85;101394.03;4998371;28;20518;-76
2023/07/17 00:39:34;;;;;;;13.13;4.05;;;;;;;16.18;99.27;101380.72;5004227;28;20406;-76
2023/07/17 00:42:03;;;;;;;16.10;4.13;;;;;;;16.14;98.99;101387.44;5003387;28;20116;-76
2023/07/17 00:44:29;;;;;;;17.52;4.47;;;;;;;16.16;98.72;101390.84;4994496;28;20066;-76
2023/07/17 00:46:55;;;;;;;12.18;3.85;;;;;;;16.11;99.80;101391.28;5003996;28;20429;-77
2023/07/17 00:49:22;;;;;;;13.73;4.78;;;;;;;16.08;99.19;101389.69;5008091;28;20029;-77
2023/07/17 00:51:48;;;;;;;16.73;4.55;;;;;;;16.07;100.00;101396.09;4999531;28;20026;-76
2023/07/17 00:54:16;;;;;;;17.67;4.50;;;;;;;16.08;99.86;101405.94;5009287;28;20060;-76
2023/07/17 00:56:43;;;;;;;15.70;4.20;;;;;;;16.05;100.00;101397.25;4992400;28;20605;-76
2023/07/17 00:59:09;;;;;;;12.70;4.05;;;;;;;16.03;99.55;101391.94;4999891;28;20104;-76
2023/07/17 01:01:35;;;;;;;16.48;4.80;;;;;;;16.03;99.32;101404.63;5000802;28;20022;-77
2023/07/17 01:04:04;;;;;;;13.15;4.45;;;;;;;15.98;98.36;101401.47;5001758;28;20069;-77
2023/07/17 01:06:30;;;;;;;14.98;4.28;;;;;;;15.95;99.00;101405.31;5001152;28;20062;-77
2023/07/17 01:08:57;;;;;;;12.20;4.15;;;;;;;15.95;99.10;101399.88;4998910;28;20022;-76
2023/07/17 01:11:22;;;;;;;18.95;4.85;;;;;;;15.90;98.64;101399.41;4999535;28;20376;-77
2023/07/17 01:13:49;;;;;;;12.65;3.83;;;;;;;15.89;100.00;101403.13;5003599;28;20036;-76
2023/07/17 01:16:14;;;;;;;15.52;4.10;;;;;;;15.88;98.85;101404.97;4993769;28;20067;-77
2023/07/17 01:18:40;;;;;;;16.15;4.07;;;;;;;15.86;98.87;101408.84;4996922;28;20417;-77
2023/07/17 01:21:08;;;;;;;16.27;4.13;;;;;;;15.82;99.00;101405.50;4999391;28;20034;-77
2023/07/17 01:23:34;;;;;;;13.93;4.40;;;;;;;15.82;99.41;101415.50;4999196;28;20036;-77
2023/07/17 01:26:00;;;;;;;19.05;4.55;;;;;;;15.80;99.39;101412.06;4999077;28;20030;-77
2023/07/17 01:28:25;;;;;;;13.55;4.43;;;;;;;15.77;99.34;101412.28;5001426;28;20030;-77
2023/07/17 01:30:51;;;;;;;12.70;3.90;;;;;;;15.73;99.48;101420.69;5000649;28;20026;-77
2023/07/17 01:33:16;;;;;;;14.30;3.72;;;;;;;15.75;98.92;101419.69;5002392;28;20075;-76
2023/07/17 01:35:42;;;;;;;13.43;3.80;;;;;;;15.71;99.75;101422.69;4999293;28;20079;-76
2023/07/17 01:38:08;;;;;;;16.70;4.32;;;;;;;15.75;100.00;101419.69;4995372;28;20082;-76
2023/07/17 01:40:33;;;;;;;14.02;4.40;;;;;;;15.72;100.00;101428.94;5002326;28;20030;-77
2023/07/17 01:42:59;;;;;;;17.27;4.60;;;;;;;15.67;99.69;101423.09;4995411;28;20030;-76
2023/07/17 01:45:24;;;;;;;14.63;4.68;;;;;;;15.70;100.00;101415.53;4993311;28;20176;-77
2023/07/17 01:47:49;;;;;;;15.48;4.53;;;;;;;15.68;100.00;101412.13;4995990;28;20461;-77
2023/07/17 01:50:15;;;;;;;16.17;4.07;;;;;;;15.68;100.00;101413.94;4999318;28;20505;-76
2023/07/17 01:52:40;;;;;;;18.77;4.18;;;;;;;15.66;100.00;101416.78;5002242;28;20038;-76
2023/07/17 01:55:06;;;;;;;14.00;3.60;;;;;;;15.64;100.00;101416.06;4998091;28;20061;-77
2023/07/17 01:57:32;;;;;;;14.88;4.50;;;;;;;15.60;99.98;101420.03;4993288;28;20030;-76
2023/07/17 01:59:57;;;;;;;13.52;4.85;;;;;;;15.61;100.00;101415.44;4992437;28;20029;-76
2023/07/17 02:02:23;;;;;;;16.55;4.22;;;;;;;15.62;100.00;101418.03;4991258;28;20104;-77
2023/07/17 02:04:48;;;;;;;9.57;3.95;;;;;;;15.58;100.00;101413.91;5002939;28;20433;-76
2023/07/17 02:07:13;;;;;;;14.45;4.22;;;;;;;15.52;100.00;101409.84;4999917;28;20805;-76
2023/07/17 02:09:39;;;;;;;12.93;4.22;;;;;;;15.54;100.00;101415.13;4996878;28;20077;-76
2023/07/17 02:12:04;;;;;;;17.95;4.68;;;;;;;15.49;100.00;101417.38;5014978;28;20402;-77
2023/07/17 02:14:30;;;;;;;15.38;4.50;;;;;;;15.45;100.00;101410.53;4999435;28;20038;-76
2023/07/17 02:16:55;;;;;;;15.23;4.45;;;;;;;15.46;100.00;101417.63;5001107;28;20018;-77
2023/07/17 02:19:20;;;;;;;16.35;4.60;;;;;;;15.44;100.00;101416.91;5001058;28;20034;-77
2023/07/17 02:21:46;;;;;;;15.75;4.57;;;;;;;15.39;100.00;101430.84;4996316;28;20081;-77
2023/07/17 02:24:11;;;;;;;13.05;4.20;;;;;;;15.41;100.00;101428.88;5001841;28;20025;-76
2023/07/17 02:26:36;;;;;;;13.13;4.05;;;;;;;15.41;100.00;101433.44;5000404;28;20037;-76
2023/07/17 02:29:03;;;;;;;15.65;4.50;;;;;;;15.33;100.00;101425.94;5000397;28;20081;-77
2023/07/17 02:31:28;;;;;;;18.05;4.32;;;;;;;15.35;100.00;101427.53;4994611;28;20061;-76
2023/07/17 02:33:55;;;;;;;14.32;4.20;;;;;;;15.33;100.00;101426.81;4993918;28;20446;-77
2023/07/17 02:36:20;;;;;;;14.88;4.50;;;;;;;15.31;100.00;101434.19;4999579;28;20018;-76
2023/07/17 02:38:46;;;;;;;15.10;4.25;;;;;;;15.28;100.00;101430.88;4997508;28;20475;-77
2023/07/17 02:41:12;;;;;;;11.02;3.72;;;;;;;15.26;100.00;101431.03;4992345;28;20031;-77
2023/07/17 02:43:37;;;;;;;15.65;4.32;;;;;;;15.20;100.00;101434.25;4991614;28;20037;-76
2023/07/17 02:46:03;;;;;;;15.27;4.18;;;;;;;15.18;100.00;101434.38;5004453;28;20033;-77
2023/07/17 02:48:28;;;;;;;14.30;4.43;;;;;;;15.18;100.00;101439.78;4989517;28;20464;-76
2023/07/17 02:50:53;;;;;;;22.20;4.97;;;;;;;15.17;100.00;101446.19;4993642;28;20022;-77
2023/07/17 02:53:19;;;;;;;16.20;4.60;;;;;;;15.12;100.00;101434.88;4997587;28;20136;-76
2023/07/17 02:55:44;;;;;;;16.67;4.55;;;;;;;15.14;100.00;101438.31;4994402;28;20110;-77
2023/07/17 02:58:09;;;;;;;13.27;4.07;;;;;;;15.14;100.00;101440.16;5001031;28;20091;-76
2023/07/17 03:00:35;;;;;;;17.58;4.22;;;;;;;15.06;100.00;101446.22;4993411;28;20100;-76
2023/07/17 03:03:04;;;;;;;15.13;4.53;;;;;;;15.02;100.00;101450.16;5013275;28;20041;-76
2023/07/17 03:05:29;;;;;;;14.55;4.45;;;;;;;15.02;100.00;101447.44;5005095;28;20030;-77
2023/07/17 03:07:55;;;;;;;13.80;4.18;;;;;;;15.00;100.00;101447.56;4996738;28;20267;-77
2023/07/17 03:10:21;;;;;;;12.85;4.10;;;;;;;14.95;100.00;101455.22;4999676;28;20109;-77
2023/07/17 03:12:47;;;;;;;15.77;4.25;;;;;;;14.97;100.00;101461.38;5001484;28;20034;-76
2023/07/17 03:15:12;;;;;;;15.77;4.35;;;;;;;14.92;100.00;101455.50;5001733;28;20027;-77
2023/07/17 03:17:38;;;;;;;19.00;4.88;;;;;;;14.93;100.00;101459.91;4992593;28;20061;-76
2023/07/17 03:20:05;;;;;;;12.98;4.35;;;;;;;14.93;100.00;101462.59;5009303;28;20123;-76
2023/07/17 03:22:31;;;;;;;12.18;4.10;;;;;;;14.89;100.00;101460.28;5000336;28;20033;-76
2023/07/17 03:24:56;;;;;;;15.23;4.68;;;;;;;14.87;100.00;101462.25;4997094;28;20078;-76
2023/07/17 03:27:21;;;;;;;14.40;4.47;;;;;;;14.88;100.00;101464.00;5001796;28;20037;-77
2023/07/17 03:29:47;;;;;;;13.50;3.92;;;;;;;14.84;100.00;101460.66;5001713;28;20378;-77
2023/07/17 03:32:13;;;;;;;13.57;4.05;;;;;;;14.86;100.00;101464.09;4993212;28;20042;-76
2023/07/17 03:34:38;;;;;;;12.32;3.90;;;;;;;14.84;100.00;101466.91;5002029;28;20030;-77
2023/07/17 03:37:04;;;;;;;16.15;4.32;;;;;;;14.77;100.00;101467.56;5003013;28;20072;-76
2023/07/17 03:39:29;;;;;;;14.15;4.35;;;;;;;14.80;100.00;101468.19;5005827;28;20025;-77
2023/07/17 03:41:54;;;;;;;13.32;4.00;;;;;;;14.77;100.00;101468.41;4997056;28;20022;-77
2023/07/17 03:44:19;;;;;;;12.52;4.10;;;;;;;14.75;100.00;101464.97;5000069;28;20036;-77
2023/07/17 03:46:45;;;;;;;10.18;3.42;;;;;;;14.76;100.00;101463.13;5000187;28;20088;-77
2023/07/17 03:49:10;;;;;;;19.02;4.30;;;;;;;14.76;100.00;101463.13;5002775;28;20034;-76
2023/07/17 03:51:36;;;;;;;9.32;3.13;;;;;;;14.72;100.00;101469.78;5000387;28;20518;-77
2023/07/17 03:54:01;;;;;;;15.70;4.18;;;;;;;14.71;100.00;101468.06;5001202;28;20114;-76
2023/07/17 03:56:26;;;;;;;17.08;4.75;;;;;;;14.68;100.00;101472.75;5002539;28;20030;-76
2023/07/17 03:58:52;;;;;;;18.17;4.05;;;;;;;14.65;100.00;101478.38;5004472;28;20084;-77
2023/07/17 04:01:17;;;;;;;13.52;4.03;;;;;;;14.60;100.00;101480.56;4991465;28;20100;-77
2023/07/17 04:03:42;;;;;;;17.35;4.57;;;;;;;14.61;100.00;101471.53;5000566;28;20034;-76
2023/07/17 04:06:08;;;;;;;14.80;4.75;;;;;;;14.61;100.00;101474.22;5001990;28;20109;-77
2023/07/17 04:08:33;;;;;;;19.50;4.90;;;;;;;14.59;100.00;101481.56;4998256;28;20026;-77
2023/07/17 04:10:59;;;;;;;15.07;4.32;;;;;;;14.57;100.00;101486.22;4999449;28;20072;-77
2023/07/17 04:13:24;;;;;;;17.02;4.72;;;;;;;14.56;100.00;101481.81;5014820;28;20439;-76
2023/07/17 04:15:49;;;;;;;17.77;4.72;;;;;;;14.58;100.00;101482.53;5001776;28;20026;-76
2023/07/17 04:18:15;;;;;;;16.60;4.35;;;;;;;14.56;100.00;101487.22;4995627;28;20092;-76
2023/07/17 04:20:41;;;;;;;17.58;4.88;;;;;;;14.59;100.00;101494.22;4998538;28;20430;-77
2023/07/17 04:23:08;;;;;;;20.13;4.88;;;;;;;14.56;100.00;101489.91;5002525;28;20503;-77
2023/07/17 04:25:37;;;;;;;12.77;4.10;;;;;;;14.60;100.00;101488.69;5000261;28;20027;-77
2023/07/17 04:28:03;;;;;;;16.17;4.63;;;;;;;14.58;100.00;101493.34;5000610;28;20335;-77
2023/07/17 04:30:29;;;;;;;16.73;4.38;;;;;;;14.60;100.00;101494.09;5001723;28;20030;-76
2023/07/17 04:32:54;;;;;;;17.83;5.60;;;;;;;14.60;100.00;101494.09;5000255;28;20022;-77
2023/07/17 04:35:20;;;;;;;17.45;4.88;;;;;;;14.57;100.00;101499.75;5002502;28;20042;-77
2023/07/17 04:37:45;;;;;;;16.67;4.68;;;;;;;14.58;100.00;101506.03;5002504;28;20046;-76
2023/07/17 04:40:11;;;;;;;17.80;5.80;;;;;;;14.66;100.00;101501.75;5000127;28;20555;-77
2023/07/17 04:42:38;;;;;;;16.30;4.65;;;;;;;14.63;99.97;101509.25;4999767;28;20026;-76
2023/07/17 04:45:05;;;;;;;17.30;5.20;;;;;;;14.68;100.00;101513.34;4991612;28;20048;-76
2023/07/17 04:47:31;;;;;;;19.42;4.63;;;;;;;14.64;100.00;101509.13;5001273;28;20401;-77
2023/07/17 04:49:56;;;;;;;17.92;5.30;;;;;;;14.62;100.00;101516.50;4994725;28;20029;-77
2023/07/17 04:52:22;;;;;;;19.02;5.30;;;;;;;14.62;100.00;101526.47;4991965;28;20022;-77
2023/07/17 04:54:47;;;;;;;19.20;4.22;;;;;;;14.66;100.00;101517.97;5000722;28;20113;-77
2023/07/17 04:57:12;;;;;;;18.42;5.95;;;;;;;14.64;100.00;101522.66;5003275;28;20037;-77
2023/07/17 04:59:38;;;;;;;16.48;5.55;;;;;;;14.69;100.00;101522.28;4995989;28;20121;-76
2023/07/17 05:02:03;;;;;;;20.45;4.80;;;;;;;14.67;100.00;101533.25;4997834;28;20037;-77
2023/07/17 05:04:29;;;;;;;17.17;5.25;;;;;;;14.67;100.00;101532.34;4997427;28;20129;-77
2023/07/17 05:06:56;;;;;;;16.00;4.90;;;;;;;14.70;100.00;101533.97;4994984;28;20029;-77
2023/07/17 05:09:21;;;;;;;20.88;5.35;;;;;;;14.70;100.00;101534.84;5002126;28;20030;-77
2023/07/17 05:11:47;;;;;;;18.20;5.07;;;;;;;14.72;99.96;101537.44;4984951;28;20113;-76
2023/07/17 05:14:13;;;;;;;23.65;5.80;;;;;;;14.75;100.00;101523.66;4999464;28;20034;-76
2023/07/17 05:16:39;;;;;;;20.63;6.28;;;;;;;14.83;100.00;101530.16;5003284;28;20448;-76
2023/07/17 05:19:05;;;;;;;23.45;5.18;;;;;;;14.83;100.00;101532.00;4994259;28;20497;-76
2023/07/17 05:21:30;;;;;;;18.02;5.97;;;;;;;14.87;100.00;101538.03;5010843;28;20053;-77
2023/07/17 05:23:56;;;;;;;15.43;5.25;;;;;;;14.92;100.00;101533.97;4999154;28;20034;-77
2023/07/17 05:26:21;;;;;;;17.77;5.32;;;;;;;14.96;100.00;101540.84;4999775;28;20045;-77
2023/07/17 05:28:47;;;;;;;18.40;4.72;;;;;;;14.99;100.00;101537.91;4994888;28;20038;-77
2023/07/17 05:31:13;;;;;;;18.55;6.05;;;;;;;15.05;100.00;101538.38;4993148;28;20052;-77
2023/07/17 05:33:38;;;;;;;18.38;5.30;;;;;;;15.06;100.00;101549.09;4995568;28;20030;-77
2023/07/17 05:36:03;;;;;;;17.67;5.88;;;;;;;15.11;100.00;101541.47;4998503;28;20068;-77
2023/07/17 05:38:29;;;;;;;19.75;4.80;;;;;;;15.16;100.00;101549.22;4998783;28;20046;-77
2023/07/17 05:41:02;;;;;;;17.52;5.20;;;;;;;15.18;99.74;101553.53;4990190;28;20030;-77
2023/07/17 05:43:29;;;;;;;17.80;5.53;;;;;;;15.22;100.00;101559.53;4994119;28;20026;-77
2023/07/17 05:45:55;;;;;;;18.25;5.40;;;;;;;15.26;99.33;101563.72;4997652;28;20060;-77
2023/07/17 05:48:20;;;;;;;18.30;5.10;;;;;;;15.30;99.95;101567.91;4995912;28;20058;-77
2023/07/17 05:50:45;;;;;;;17.15;5.20;;;;;;;15.31;99.01;101561.47;4997012;28;20022;-77
2023/07/17 05:53:10;;;;;;;22.33;6.18;;;;;;;15.36;98.45;101571.97;4999045;28;20113;-77
2023/07/17 05:55:36;;;;;;;18.60;5.28;;;;;;;15.35;98.37;101576.50;4997171;28;20033;-80
2023/07/17 05:58:01;;;;;;;20.45;5.85;;;;;;;15.38;98.93;101565.41;4991980;28;20030;-76
2023/07/17 06:00:27;;;;;;;20.95;5.63;;;;;;;15.43;98.46;101573.13;4996321;28;20037;-76
2023/07/17 06:02:52;;;;;;;23.40;5.95;;;;;;;15.50;98.50;101574.34;5004273;28;20402;-78
2023/07/17 06:05:18;;;;;;;19.90;5.55;;;;;;;15.54;97.09;101575.84;5003321;28;20117;-78
2023/07/17 06:07:43;;;;;;;23.92;6.07;;;;;;;15.59;97.31;101577.31;5003340;28;20032;-78
2023/07/17 06:10:09;;;;;;;20.10;5.40;;;;;;;15.61;95.86;101578.91;4993087;28;20052;-77
2023/07/17 06:12:34;;;;;;;19.55;4.90;;;;;;;15.64;96.08;101581.34;4994479;28;20034;-77
2023/07/17 06:14:59;;;;;;;20.02;4.97;;;;;;;15.70;96.72;101588.13;4992019;28;20101;-78
2023/07/17 06:17:25;;;;;;;19.42;6.15;;;;;;;15.76;96.83;101584.03;4996330;28;20237;-78
2023/07/17 06:19:50;;;;;;;18.30;5.53;;;;;;;15.77;95.71;101581.19;5007193;28;20042;-78
2023/07/17 06:22:16;;;;;;;21.90;5.65;;;;;;;15.83;95.45;101588.84;5003871;28;20037;-78
2023/07/17 06:24:41;;;;;;;17.90;5.30;;;;;;;15.86;96.17;101593.16;5002895;28;20122;-78
2023/07/17 06:27:06;;;;;;;19.45;5.75;;;;;;;15.89;95.10;101591.03;4990908;28;20025;-78
2023/07/17 06:29:32;;;;;;;19.13;5.28;;;;;;;15.99;95.25;101595.66;4999238;28;20112;-78
2023/07/17 06:31:57;;;;;;;16.63;5.63;;;;;;;16.01;94.77;101591.84;4991442;28;20033;-78
2023/07/17 06:34:23;;;;;;;19.23;5.28;;;;;;;16.02;93.78;101601.72;4993039;28;20545;-78
2023/07/17 06:36:50;;;;;;;19.35;5.57;;;;;;;16.08;94.72;101605.75;4993384;28;20434;-77
2023/07/17 06:39:15;;;;;;;22.65;6.85;;;;;;;16.12;94.66;101606.34;4993326;28;20124;-78
2023/07/17 06:41:40;;;;;;;20.23;5.45;;;;;;;16.16;92.39;101603.22;4996905;28;20420;-77
2023/07/17 06:44:06;;;;;;;20.50;5.45;;;;;;;16.20;92.42;101604.69;4994432;28;20038;-78
2023/07/17 06:46:31;;;;;;;17.67;5.93;;;;;;;16.26;94.21;101614.16;4995242;28;20052;-78
2023/07/17 06:48:56;;;;;;;17.85;5.78;;;;;;;16.31;92.08;101611.94;4991501;28;20096;-76
2023/07/17 06:51:22;;;;;;;20.23;5.50;;;;;;;16.33;92.06;101611.81;5003011;28;20093;-77
2023/07/17 06:53:47;;;;;;;16.60;5.13;;;;;;;16.35;91.65;101624.22;4999219;28;20109;-76
2023/07/17 06:56:13;;;;;;;20.88;5.15;;;;;;;16.39;92.39;101617.53;4991190;28;20110;-76
2023/07/17 06:58:38;;;;;;;23.25;5.38;;;;;;;16.47;90.95;101616.03;5004975;28;20038;-77
2023/07/17 07:01:03;;;;;;;19.27;4.85;;;;;;;16.51;89.68;101620.19;5002041;28;20113;-78
2023/07/17 07:03:29;;;;;;;15.23;4.60;;;;;;;16.57;90.19;101627.81;4987200;28;20027;-76
2023/07/17 07:05:59;;;;;;;16.95;4.50;;;;;;;16.62;90.83;101628.28;4991794;28;20057;-76
2023/07/17 07:08:26;;;;;;;18.58;5.55;;;;;;;16.69;90.35;101625.88;5000600;28;20018;-76
2023/07/17 07:10:52;;;;;;;19.73;5.57;;;;;;;16.78;90.56;101627.81;4995584;28;20030;-76
2023/07/17 07:13:19;;;;;;;17.85;5.35;;;;;;;16.87;88.79;101634.28;4999380;28;20479;-76
2023/07/17 07:15:44;;;;;;;14.43;4.47;;;;;;;16.90;88.35;101640.34;4999787;28;20018;-76
2023/07/17 07:18:10;;;;;;;22.90;6.63;;;;;;;16.89;85.19;101638.59;4999064;28;20438;-76
2023/07/17 07:20:35;;;;;;;18.40;5.45;;;;;;;16.94;87.33;101647.22;4996929;28;20458;-76
2023/07/17 07:23:00;;;;;;;17.75;5.60;;;;;;;16.99;86.76;101652.25;4989563;28;20030;-74
2023/07/17 07:25:26;;;;;;;17.55;5.93;;;;;;;17.04;87.07;101646.41;4983571;28;20043;-78
2023/07/17 07:27:51;;;;;;;20.40;5.55;;;;;;;17.04;86.26;101644.56;4992884;28;20038;-70
2023/07/17 07:30:16;;;;;;;16.70;5.38;;;;;;;17.01;86.62;101652.09;4989509;28;20364;-80
2023/07/17 07:32:42;;;;;;;20.88;5.63;;;;;;;17.01;87.01;101655.66;4990607;28;20026;-80
2023/07/17 07:35:07;;;;;;;20.63;5.88;;;;;;;17.02;86.04;101656.56;4987472;28;20030;-79
2023/07/17 07:37:33;;;;;;;19.95;5.88;;;;;;;17.02;84.20;101665.53;4986797;28;20052;-79
2023/07/17 07:39:58;;;;;;;20.13;5.68;;;;;;;17.05;84.81;101657.13;4989543;28;20465;-79
2023/07/17 07:42:23;;;;;;;22.42;5.43;;;;;;;17.09;84.51;101650.44;4985596;28;20083;-79
2023/07/17 07:44:49;;;;;;;19.75;6.28;;;;;;;17.15;84.53;101659.06;4987804;28;20042;-80
2023/07/17 07:47:14;;;;;;;19.88;5.60;;;;;;;17.16;84.17;101664.34;4985785;28;20513;-80
2023/07/17 07:49:39;;;;;;;19.52;5.95;;;;;;;17.20;84.16;101667.63;4991023;28;20049;-79
2023/07/17 07:52:05;;;;;;;20.95;6.32;;;;;;;17.24;83.77;101669.94;4990610;28;20034;-82
2023/07/17 07:54:31;;;;;;;16.23;5.47;;;;;;;17.29;82.45;101672.25;4995669;28;20022;-78
2023/07/17 07:56:56;;;;;;;22.52;6.03;;;;;;;17.33;81.32;101670.13;4990884;28;20352;-79
2023/07/17 07:59:21;;;;;;;21.58;5.72;;;;;;;17.38;83.05;101671.44;5003515;28;20428;-79
2023/07/17 08:01:47;;;;;;;16.35;5.63;;;;;;;17.38;80.87;101671.44;4992646;28;20034;-80
2023/07/17 08:04:12;;;;;;;19.15;6.30;;;;;;;17.43;81.01;101680.03;4995819;28;20041;-78
2023/07/17 08:06:38;;;;;;;19.80;6.15;;;;;;;17.51;80.82;101678.47;4995638;28;20185;-79
2023/07/17 08:09:03;;;;;;;19.00;6.13;;;;;;;17.57;82.09;101672.47;4999737;28;20034;-78
2023/07/17 08:11:29;;;;;;;22.10;6.32;;;;;;;17.64;81.26;101682.69;5000439;28;20033;-78
2023/07/17 08:13:54;;;;;;;20.02;5.95;;;;;;;17.65;80.57;101689.81;4985188;28;20057;-78
2023/07/17 08:16:19;;;;;;;21.60;5.85;;;;;;;17.66;78.60;101690.72;5002163;28;20038;-78
2023/07/17 08:18:46;;;;;;;17.63;5.75;;;;;;;17.69;79.76;101684.09;5003554;28;20037;-78
2023/07/17 08:21:12;;;;;;;17.27;6.00;;;;;;;17.72;79.57;101682.00;5006383;28;20543;-78
2023/07/17 08:23:37;;;;;;;17.85;5.70;;;;;;;17.74;78.38;101688.13;5002003;28;20037;-78
2023/07/17 08:26:04;;;;;;;21.75;6.60;;;;;;;17.78;78.96;101684.16;5004613;28;20030;-78
2023/07/17 08:28:29;;;;;;;21.95;5.88;;;;;;;17.80;76.93;101693.03;5003184;28;20025;-78
2023/07/17 08:30:55;;;;;;;17.48;6.07;;;;;;;17.80;78.36;101690.31;4999817;28;20049;-78
2023/07/17 08:33:20;;;;;;;17.35;5.65;;;;;;;17.80;78.31;101693.03;5002909;28;20017;-78
2023/07/17 08:35:46;;;;;;;17.40;5.20;;;;;;;17.81;78.05;101685.72;4998394;28;20026;-79
2023/07/17 08:38:11;;;;;;;19.58;5.30;;;;;;;17.79;76.36;101688.59;4994210;28;20053;-78
2023/07/17 08:40:39;;;;;;;21.80;6.05;;;;;;;17.82;77.70;101693.75;4999621;28;20030;-78
2023/07/17 08:43:06;;;;;;;21.40;6.13;;;;;;;17.92;76.44;101695.66;5000774;28;20056;-77
2023/07/17 08:45:36;;;;;;;19.42;6.18;;;;;;;18.01;76.11;101689.38;5003462;28;20030;-78
2023/07/17 08:48:02;;;;;;;22.75;6.18;;;;;;;18.16;77.03;101703.44;4996872;28;20034;-78
2023/07/17 08:50:28;;;;;;;15.60;4.97;;;;;;;18.27;75.46;101699.72;4999361;28;20068;-78
2023/07/17 08:52:54;;;;;;;19.88;5.70;;;;;;;18.33;74.66;101700.00;5002868;28;20050;-78
2023/07/17 08:55:21;;;;;;;15.40;5.47;;;;;;;18.45;77.40;101699.88;5001175;28;20036;-77
2023/07/17 08:57:52;;;;;;;17.55;4.45;;;;;;;18.48;72.59;101694.16;4998992;28;20034;-78
2023/07/17 09:00:19;;;;;;;18.33;6.03;;;;;;;18.50;73.57;101695.69;5001307;28;20109;-78
2023/07/17 09:02:44;;;;;;;17.40;4.95;;;;;;;18.50;74.98;101694.84;4998458;28;20026;-78
2023/07/17 09:05:10;;;;;;;22.25;5.57;;;;;;;18.50;74.36;101692.97;4999399;28;20456;-77
2023/07/17 09:07:35;;;;;;;19.27;5.85;;;;;;;18.48;72.45;101695.00;4992679;28;20121;-78
2023/07/17 09:10:22;;;;;;;17.02;4.90;;;;;;;18.50;73.01;101694.84;5000792;28;20178;-78
2023/07/17 09:12:55;;;;;;;19.35;4.95;;;;;;;18.50;73.01;101695.69;4990975;28;20030;-78
2023/07/17 09:15:21;;;;;;;14.93;4.88;;;;;;;18.56;72.48;101699.72;4992352;28;20486;-77
2023/07/17 09:17:46;;;;;;;16.52;4.68;;;;;;;18.59;72.53;101704.00;4997984;28;20053;-77
2023/07/17 09:20:13;;;;;;;17.00;4.80;;;;;;;18.55;69.29;101708.03;4999979;28;20034;-77
2023/07/17 09:22:39;;;;;;;17.00;4.80;;;;;;;18.54;70.41;101693.56;5000763;28;20037;-76
2023/07/17 09:25:06;;;;;;;13.85;4.65;;;;;;;18.52;68.61;101701.88;4993046;28;20157;-79
2023/07/17 09:27:41;;;;;;;12.85;4.10;;;;;;;18.52;68.20;101709.16;4997872;28;20029;-77
2023/07/17 09:30:12;;;;;;;13.25;3.92;;;;;;;18.49;67.26;101701.28;5003721;28;20033;-77
2023/07/17 09:32:38;;;;;;;15.07;4.70;;;;;;;18.59;69.80;101706.75;4994869;28;20565;-77
2023/07/17 09:35:04;;;;;;;18.55;4.65;;;;;;;18.66;69.65;101699.72;5000207;28;20144;-77
2023/07/17 09:37:31;;;;;;;15.80;4.30;;;;;;;18.69;65.46;101708.44;4998801;28;20153;-77
2023/07/17 09:40:01;;;;;;;15.55;4.60;;;;;;;18.88;70.12;101711.34;5005136;28;20033;-78
2023/07/17 09:42:27;;;;;;;13.40;3.85;;;;;;;19.00;67.63;101708.28;4997993;28;20051;-79
2023/07/17 09:44:53;;;;;;;11.80;3.92;;;;;;;19.16;68.82;101706.81;4998572;28;20092;-78
2023/07/17 09:47:19;;;;;;;16.08;4.60;;;;;;;19.29;68.42;101701.03;4999021;28;20029;-78
2023/07/17 09:49:47;;;;;;;16.58;4.90;;;;;;;19.33;66.09;101718.81;4999045;28;20052;-78
2023/07/17 09:52:14;;;;;;;18.73;4.30;;;;;;;19.32;63.66;101703.47;4990344;28;20376;-78
2023/07/17 09:54:42;;;;;;;11.55;3.50;;;;;;;19.37;64.57;101720.22;4998213;28;20030;-78
2023/07/17 09:57:09;;;;;;;14.35;4.18;;;;;;;19.33;62.65;101707.91;4994047;28;20409;-78
2023/07/17 09:59:38;;;;;;;16.90;4.65;;;;;;;19.27;62.40;101722.13;4992956;28;20030;-78
2023/07/17 10:02:10;;;;;;;15.75;4.25;;;;;;;19.22;64.00;101717.13;5001613;28;20033;-77
2023/07/17 10:04:44;;;;;;;14.57;3.63;;;;;;;19.25;63.46;101716.81;4993594;28;20454;-78
2023/07/17 10:07:13;;;;;;;12.30;4.10;;;;;;;19.38;63.55;101706.44;5003818;28;20038;-78
2023/07/17 10:09:43;;;;;;;15.63;4.30;;;;;;;19.38;62.32;101706.44;5002308;28;20030;-79
2023/07/17 10:12:10;;;;;;;14.85;4.07;;;;;;;19.34;62.21;101706.88;4997265;28;20038;-76
2023/07/17 10:14:35;;;;;;;11.13;4.03;;;;;;;19.36;61.63;101700.28;4992112;28;20397;-79
2023/07/17 10:17:01;;;;;;;14.23;4.55;;;;;;;19.48;63.78;101706.41;4985611;28;20076;-79
2023/07/17 10:19:42;;;;;;;13.27;4.30;;;;;;;19.49;61.93;101708.13;4998080;28;20133;-78
2023/07/17 10:22:13;;;;;;;14.15;4.03;;;;;;;19.52;61.58;101713.28;4996410;28;20029;-78
2023/07/17 10:24:40;;;;;;;15.25;4.32;;;;;;;19.57;62.95;101710.09;4996563;28;20031;-79
2023/07/17 10:27:08;;;;;;;17.98;4.35;;;;;;;19.62;63.18;101706.91;4996417;28;20025;-78
2023/07/17 10:29:44;;;;;;;13.10;4.07;;;;;;;19.58;63.93;101710.94;5001597;28;20034;-79
2023/07/17 10:32:12;;;;;;;17.42;4.63;;;;;;;19.54;62.61;101710.41;4990137;28;20053;-79
2023/07/17 10:34:48;;;;;;;16.92;4.68;;;;;;;19.48;61.79;101716.47;5002494;28;20034;-79
2023/07/17 10:37:31;;;;;;;14.07;4.50;;;;;;;19.38;61.96;101711.03;4996114;28;20046;-78
2023/07/17 10:40:07;;;;;;;13.35;3.97;;;;;;;19.41;61.81;101710.75;4994379;28;20037;-79
2023/07/17 10:42:33;;;;;;;15.40;4.53;;;;;;;19.54;62.55;101703.06;4988349;28;20421;-78
2023/07/17 10:45:11;;;;;;;13.88;4.63;;;;;;;19.70;63.05;101709.75;5002585;28;20033;-78
2023/07/17 10:47:36;;;;;;;19.13;5.45;;;;;;;19.84;62.07;101705.66;4999521;28;20509;-77
2023/07/17 10:50:03;;;;;;;14.80;4.82;;;;;;;19.94;63.63;101689.25;4993144;28;20030;-78
2023/07/17 10:52:35;;;;;;;18.48;5.22;;;;;;;19.96;60.47;101700.88;4992042;28;20034;-78
2023/07/17 10:55:05;;;;;;;17.25;5.15;;;;;;;19.93;59.75;101698.44;4999814;28;20030;-79
2023/07/17 10:57:31;;;;;;;14.52;4.35;;;;;;;19.97;61.69;101692.56;5001507;28;20026;-78
2023/07/17 10:59:57;;;;;;;14.40;4.45;;;;;;;20.01;60.35;101687.63;4994212;28;20109;-78
2023/07/17 11:02:26;;;;;;;15.20;4.75;;;;;;;20.03;60.21;101701.97;4992581;28;20428;-78
2023/07/17 11:04:57;;;;;;;13.32;3.85;;;;;;;19.97;58.49;101698.00;4986462;28;20528;-77
2023/07/17 11:07:24;;;;;;;12.82;4.57;;;;;;;20.07;59.60;101706.09;4993925;28;20084;-77
2023/07/17 11:09:49;;;;;;;14.40;4.20;;;;;;;20.16;58.06;101696.13;4996279;28;20029;-78